createdAt,value
2023-01-29T00:00:34.294Z,5.20
2023-01-29T00:01:34.245Z,5.70
2023-01-29T00:02:34.236Z,4.40
2023-01-29T00:03:34.268Z,4.20
2023-01-29T00:04:34.215Z,4.30
2023-01-29T00:05:34.215Z,3.40
2023-01-29T00:06:34.184Z,4.10
2023-01-29T00:07:34.163Z,3.60
2023-01-29T00:08:34.147Z,2.80
2023-01-29T00:09:34.261Z,1.90
2023-01-29T00:10:34.133Z,4.90
2023-01-29T00:11:34.184Z,5.30
2023-01-29T00:12:34.108Z,6.00
2023-01-29T00:13:34.064Z,2.80
2023-01-29T00:14:34.061Z,3.50
2023-01-29T00:15:34.147Z,4.00
2023-01-29T00:16:34.020Z,4.70
2023-01-29T00:17:34.013Z,3.30
2023-01-29T00:18:34.083Z,4.20
2023-01-29T00:19:33.992Z,4.80
2023-01-29T00:20:33.979Z,4.40
2023-01-29T00:21:34.070Z,5.10
2023-01-29T00:22:33.960Z,4.90
2023-01-29T00:23:33.939Z,4.20
2023-01-29T00:24:34.013Z,4.50
2023-01-29T00:25:33.980Z,4.10
2023-01-29T00:26:34.103Z,4.20
2023-01-29T00:27:33.966Z,4.40
2023-01-29T00:28:33.903Z,7.00
2023-01-29T00:29:33.870Z,5.50
2023-01-29T00:30:33.895Z,5.50
2023-01-29T00:31:33.967Z,4.50
2023-01-29T00:32:33.831Z,5.60
2023-01-29T00:33:33.836Z,6.80
2023-01-29T00:34:33.850Z,5.50
2023-01-29T00:35:33.778Z,5.80
2023-01-29T00:36:33.800Z,5.60
2023-01-29T00:37:33.833Z,6.30
2023-01-29T00:38:33.745Z,4.30
2023-01-29T00:39:46.799Z,6.60
2023-01-29T00:40:34.808Z,5.00
2023-01-29T00:41:33.757Z,6.00
2023-01-29T00:42:33.743Z,7.70
2023-01-29T00:43:33.813Z,5.90
2023-01-29T00:44:33.665Z,4.00
2023-01-29T00:45:33.666Z,4.00
2023-01-29T00:46:33.770Z,4.30
2023-01-29T00:47:34.019Z,4.70
2023-01-29T00:48:33.621Z,4.30
2023-01-29T00:49:33.692Z,4.10
2023-01-29T00:50:33.659Z,4.90
2023-01-29T00:51:33.590Z,5.90
2023-01-29T00:52:33.626Z,4.70
2023-01-29T00:53:33.549Z,4.30
2023-01-29T00:54:33.573Z,4.20
2023-01-29T00:55:33.623Z,5.50
2023-01-29T00:56:33.560Z,6.10
2023-01-29T00:57:33.537Z,5.00
2023-01-29T00:58:33.476Z,5.20
2023-01-29T00:59:33.480Z,4.70
2023-01-29T01:00:33.490Z,7.20
2023-01-29T01:01:33.476Z,6.30
2023-01-29T01:02:33.454Z,5.10
2023-01-29T01:03:33.462Z,4.70
2023-01-29T01:04:35.031Z,5.70
2023-01-29T01:05:33.397Z,5.90
2023-01-29T01:06:33.355Z,7.20
2023-01-29T01:07:33.417Z,5.90
2023-01-29T01:08:33.459Z,7.90
2023-01-29T01:09:33.315Z,7.30
2023-01-29T01:10:33.329Z,5.90
2023-01-29T01:11:33.335Z,6.50
2023-01-29T01:12:33.302Z,5.60
2023-01-29T01:13:33.276Z,6.80
2023-01-29T01:14:33.428Z,6.00
2023-01-29T01:15:33.288Z,5.80
2023-01-29T01:16:33.347Z,6.20
2023-01-29T01:17:33.236Z,7.00
2023-01-29T01:18:33.269Z,6.50
2023-01-29T01:19:33.243Z,3.30
2023-01-29T01:20:33.229Z,2.20
2023-01-29T01:21:33.267Z,3.60
2023-01-29T01:22:33.236Z,4.60
2023-01-29T01:23:33.135Z,7.30
2023-01-29T01:24:33.139Z,6.10
2023-01-29T01:25:33.108Z,1.20
2023-01-29T01:26:33.116Z,4.80
2023-01-29T01:27:33.116Z,6.50
2023-01-29T01:28:33.139Z,5.20
2023-01-29T01:29:33.102Z,5.60
2023-01-29T01:30:33.070Z,5.80
2023-01-29T01:31:33.085Z,7.30
2023-01-29T01:32:33.012Z,7.20
2023-01-29T01:33:33.097Z,8.60
2023-01-29T01:34:33.016Z,6.80
2023-01-29T01:35:33.040Z,6.50
2023-01-29T01:36:33.023Z,6.80
2023-01-29T01:37:32.969Z,7.60
2023-01-29T01:38:32.941Z,7.20
2023-01-29T01:39:32.929Z,7.00
2023-01-29T01:40:32.940Z,7.00
2023-01-29T01:41:32.941Z,7.20
2023-01-29T01:42:32.903Z,5.10
2023-01-29T01:43:32.948Z,7.20
2023-01-29T01:44:32.891Z,6.40
2023-01-29T01:45:32.890Z,7.70
2023-01-29T01:46:32.866Z,9.60
2023-01-29T01:47:32.862Z,7.70
2023-01-29T01:48:32.806Z,6.80
2023-01-29T01:49:32.862Z,6.50
2023-01-29T01:50:32.768Z,8.40
2023-01-29T01:51:32.769Z,7.20
2023-01-29T01:52:32.819Z,8.40
2023-01-29T01:53:32.858Z,6.00
2023-01-29T01:54:32.721Z,7.60
2023-01-29T01:55:32.721Z,7.20
2023-01-29T01:56:32.745Z,7.20
2023-01-29T01:57:32.758Z,6.70
2023-01-29T01:58:32.715Z,6.80
2023-01-29T01:59:32.691Z,7.40
2023-01-29T02:00:32.714Z,8.30
2023-01-29T02:01:32.637Z,7.60
2023-01-29T02:02:32.695Z,7.60
2023-01-29T02:03:32.616Z,6.60
2023-01-29T02:04:32.618Z,6.80
2023-01-29T02:05:32.637Z,6.40
2023-01-29T02:06:32.566Z,7.90
2023-01-29T02:07:32.631Z,6.20
2023-01-29T02:08:32.668Z,6.30
2023-01-29T02:09:32.575Z,5.90
2023-01-29T02:10:32.693Z,6.80
2023-01-29T02:11:32.538Z,5.50
2023-01-29T02:12:32.566Z,8.20
2023-01-29T02:13:32.639Z,5.60
2023-01-29T02:14:32.486Z,6.20
2023-01-29T02:15:32.483Z,7.60
2023-01-29T02:16:32.484Z,7.30
2023-01-29T02:17:32.701Z,5.90
2023-01-29T02:18:32.433Z,6.20
2023-01-29T02:19:32.454Z,5.50
2023-01-29T02:20:32.489Z,6.30
2023-01-29T02:21:32.395Z,5.60
2023-01-29T02:22:32.434Z,6.60
2023-01-29T02:23:32.477Z,5.50
2023-01-29T02:24:32.397Z,7.90
2023-01-29T02:25:32.343Z,6.90
2023-01-29T02:26:32.312Z,6.40
2023-01-29T02:27:32.327Z,7.30
2023-01-29T02:28:32.494Z,6.70
2023-01-29T02:29:32.253Z,6.50
2023-01-29T02:30:32.334Z,6.40
2023-01-29T02:31:32.341Z,7.40
2023-01-29T02:32:32.237Z,6.20
2023-01-29T02:33:32.351Z,7.70
2023-01-29T02:34:32.232Z,6.60
2023-01-29T02:35:32.207Z,6.30
2023-01-29T02:36:32.464Z,6.10
2023-01-29T02:37:32.201Z,5.30
2023-01-29T02:38:32.171Z,6.50
2023-01-29T02:39:32.191Z,5.80
2023-01-29T02:40:32.297Z,7.80
2023-01-29T02:41:32.129Z,6.10
2023-01-29T02:42:32.115Z,7.60
2023-01-29T02:43:32.255Z,5.10
2023-01-29T02:44:32.092Z,6.60
2023-01-29T02:45:32.116Z,6.90
2023-01-29T02:46:32.296Z,6.50
2023-01-29T02:47:32.044Z,6.30
2023-01-29T02:48:32.023Z,8.10
2023-01-29T02:49:32.164Z,5.90
2023-01-29T02:50:32.001Z,5.80
2023-01-29T02:51:31.971Z,7.20
2023-01-29T02:52:32.171Z,6.50
2023-01-29T02:53:32.088Z,7.50
2023-01-29T02:54:31.961Z,8.80
2023-01-29T02:55:32.098Z,5.40
2023-01-29T02:56:31.919Z,9.10
2023-01-29T02:57:31.907Z,8.00
2023-01-29T02:58:32.119Z,9.30
2023-01-29T02:59:32.160Z,7.40
2023-01-29T03:00:32.047Z,5.80
2023-01-29T03:01:31.876Z,8.00
2023-01-29T03:02:31.914Z,6.40
2023-01-29T03:03:32.114Z,6.80
2023-01-29T03:04:31.917Z,6.30
2023-01-29T03:05:31.930Z,6.30
2023-01-29T03:06:31.932Z,9.70
2023-01-29T03:07:31.966Z,7.20
2023-01-29T03:08:31.870Z,8.20
2023-01-29T03:09:31.882Z,7.40
2023-01-29T03:10:31.797Z,6.60
2023-01-29T03:11:31.782Z,8.20
2023-01-29T03:12:31.887Z,8.00
2023-01-29T03:13:31.757Z,6.90
2023-01-29T03:14:31.688Z,6.40
2023-01-29T03:15:31.828Z,5.90
2023-01-29T03:16:31.763Z,7.40
2023-01-29T03:17:31.666Z,6.80
2023-01-29T03:18:31.717Z,7.40
2023-01-29T03:19:31.744Z,7.60
2023-01-29T03:20:31.648Z,7.70
2023-01-29T03:21:31.594Z,7.50
2023-01-29T03:22:31.761Z,7.40
2023-01-29T03:23:31.842Z,5.70
2023-01-29T03:24:31.632Z,6.10
2023-01-29T03:25:31.714Z,7.70
2023-01-29T03:26:31.534Z,4.80
2023-01-29T03:27:31.588Z,5.80
2023-01-29T03:28:31.724Z,6.20
2023-01-29T03:29:31.710Z,7.70
2023-01-29T03:30:31.458Z,6.30
2023-01-29T03:31:31.551Z,8.30
2023-01-29T03:32:31.608Z,7.20
2023-01-29T03:33:31.423Z,6.20
2023-01-29T03:34:31.510Z,5.90
2023-01-29T03:35:31.605Z,5.60
2023-01-29T03:36:31.451Z,8.80
2023-01-29T03:37:31.401Z,8.50
2023-01-29T03:38:31.410Z,8.30
2023-01-29T03:39:31.336Z,10.00
2023-01-29T03:40:31.512Z,7.50
2023-01-29T03:41:31.418Z,8.70
2023-01-29T03:42:31.364Z,7.00
2023-01-29T03:43:31.642Z,7.10
2023-01-29T03:44:31.279Z,6.80
2023-01-29T03:45:31.319Z,6.80
2023-01-29T03:46:31.308Z,8.70
2023-01-29T03:47:52.273Z,8.50
2023-01-29T03:48:31.235Z,8.10
2023-01-29T03:49:31.209Z,7.00
2023-01-29T03:51:07.701Z,7.60
2023-01-29T03:51:31.203Z,8.20
2023-01-29T03:52:31.219Z,7.50
2023-01-29T03:53:31.310Z,7.10
2023-01-29T03:54:31.170Z,8.10
2023-01-29T03:55:31.139Z,6.30
2023-01-29T03:56:31.153Z,6.70
2023-01-29T03:57:31.255Z,7.70
2023-01-29T03:58:31.179Z,7.30
2023-01-29T03:59:31.092Z,8.30
2023-01-29T04:00:31.069Z,8.40
2023-01-29T04:01:31.242Z,7.00
2023-01-29T04:02:31.077Z,5.80
2023-01-29T04:03:31.082Z,7.70
2023-01-29T04:05:03.346Z,6.80
2023-01-29T04:05:31.087Z,7.10
2023-01-29T04:06:31.009Z,5.70
2023-01-29T04:07:30.999Z,8.30
2023-01-29T04:08:30.998Z,7.70
2023-01-29T04:09:31.019Z,7.60
2023-01-29T04:10:30.988Z,7.90
2023-01-29T04:11:31.079Z,8.00
2023-01-29T04:12:30.949Z,10.30
2023-01-29T04:13:30.931Z,7.50
2023-01-29T04:14:31.068Z,7.40
2023-01-29T04:15:30.881Z,7.70
2023-01-29T04:16:30.934Z,6.70
2023-01-29T04:17:30.847Z,7.50
2023-01-29T04:18:30.965Z,7.40
2023-01-29T04:19:30.846Z,6.70
2023-01-29T04:20:30.865Z,6.70
2023-01-29T04:21:30.786Z,8.10
2023-01-29T04:22:30.816Z,7.00
2023-01-29T04:23:30.765Z,6.90
2023-01-29T04:24:30.835Z,6.10
2023-01-29T04:25:30.776Z,8.30
2023-01-29T04:26:30.753Z,8.50
2023-01-29T04:27:30.704Z,7.90
2023-01-29T04:28:30.735Z,7.90
2023-01-29T04:29:30.704Z,7.50
2023-01-29T04:30:30.676Z,9.90
2023-01-29T04:31:30.788Z,7.60
2023-01-29T04:32:30.664Z,8.30
2023-01-29T04:33:30.675Z,7.20
2023-01-29T04:34:30.692Z,8.60
2023-01-29T04:35:30.612Z,6.50
2023-01-29T04:36:30.604Z,9.20
2023-01-29T04:37:30.592Z,8.50
2023-01-29T04:38:30.630Z,7.10
2023-01-29T04:39:30.604Z,8.90
2023-01-29T04:40:30.572Z,6.70
2023-01-29T04:41:30.538Z,7.40
2023-01-29T04:42:30.557Z,7.10
2023-01-29T04:43:30.514Z,9.60
2023-01-29T04:44:30.500Z,10.00
2023-01-29T04:45:30.529Z,7.70
2023-01-29T04:46:30.493Z,7.80
2023-01-29T04:47:30.500Z,6.90
2023-01-29T04:48:30.456Z,9.50
2023-01-29T04:49:30.462Z,6.70
2023-01-29T04:50:30.434Z,8.50
2023-01-29T04:51:30.442Z,7.00
2023-01-29T04:52:30.410Z,6.70
2023-01-29T04:53:30.379Z,8.30
2023-01-29T04:54:30.396Z,7.10
2023-01-29T04:55:30.382Z,8.60
2023-01-29T04:56:30.322Z,8.50
2023-01-29T04:57:30.321Z,7.80
2023-01-29T04:58:30.412Z,8.20
2023-01-29T04:59:30.312Z,7.10
2023-01-29T05:00:30.292Z,8.60
2023-01-29T05:01:30.335Z,7.20
2023-01-29T05:02:30.309Z,8.20
2023-01-29T05:03:30.271Z,7.40
2023-01-29T05:04:30.256Z,8.00
2023-01-29T05:05:30.240Z,6.40
2023-01-29T05:06:30.209Z,7.30
2023-01-29T05:07:30.205Z,6.40
2023-01-29T05:08:30.202Z,7.70
2023-01-29T05:09:30.178Z,8.50
2023-01-29T05:10:30.355Z,8.30
2023-01-29T05:11:30.165Z,8.40
2023-01-29T05:12:30.129Z,7.00
2023-01-29T05:13:30.117Z,6.90
2023-01-29T05:14:30.867Z,5.70
2023-01-29T05:15:30.094Z,6.60
2023-01-29T05:16:30.128Z,7.40
2023-01-29T05:17:30.078Z,7.90
2023-01-29T05:18:30.056Z,10.10
2023-01-29T05:19:30.051Z,7.50
2023-01-29T05:20:30.055Z,7.30
2023-01-29T05:21:30.054Z,7.80
2023-01-29T05:22:30.040Z,8.00
2023-01-29T05:23:30.060Z,9.30
2023-01-29T05:24:30.030Z,8.20
2023-01-29T05:25:29.974Z,7.40
2023-01-29T05:26:29.978Z,8.10
2023-01-29T05:27:29.937Z,7.70
2023-01-29T05:28:29.960Z,7.00
2023-01-29T05:29:29.997Z,7.60
2023-01-29T05:30:29.883Z,8.50
2023-01-29T05:31:30.054Z,7.70
2023-01-29T05:32:29.952Z,8.20
2023-01-29T05:33:29.894Z,7.30
2023-01-29T05:34:29.883Z,8.60
2023-01-29T05:35:29.917Z,7.00
2023-01-29T05:36:29.833Z,6.50
2023-01-29T05:37:29.795Z,7.60
2023-01-29T05:38:29.858Z,8.20
2023-01-29T05:39:29.792Z,7.50
2023-01-29T05:40:29.783Z,9.60
2023-01-29T05:41:29.766Z,7.70
2023-01-29T05:42:29.772Z,8.20
2023-01-29T05:43:29.721Z,7.10
2023-01-29T05:44:29.726Z,7.60
2023-01-29T05:45:29.753Z,8.00
2023-01-29T05:46:29.778Z,12.10
2023-01-29T05:47:29.676Z,7.20
2023-01-29T05:48:29.682Z,9.60
2023-01-29T05:49:29.645Z,8.50
2023-01-29T05:50:29.667Z,7.20
2023-01-29T05:51:29.685Z,7.10
2023-01-29T05:52:29.643Z,9.80
2023-01-29T05:53:29.583Z,9.10
2023-01-29T05:54:29.655Z,8.30
2023-01-29T05:55:29.571Z,8.50
2023-01-29T05:56:29.545Z,10.80
2023-01-29T05:57:29.571Z,9.10
2023-01-29T05:58:29.567Z,7.40
2023-01-29T05:59:29.523Z,8.20
2023-01-29T06:00:29.560Z,8.00
2023-01-29T06:01:29.558Z,8.60
2023-01-29T06:02:29.486Z,9.20
2023-01-29T06:03:29.513Z,8.30
2023-01-29T06:04:29.518Z,7.60
2023-01-29T06:05:29.469Z,10.10
2023-01-29T06:06:29.475Z,8.40
2023-01-29T06:07:29.412Z,8.80
2023-01-29T06:08:29.392Z,8.30
2023-01-29T06:09:29.481Z,9.20
2023-01-29T06:10:29.595Z,7.60
2023-01-29T06:11:29.353Z,8.40
2023-01-29T06:12:29.375Z,9.60
2023-01-29T06:13:29.348Z,10.10
2023-01-29T06:14:29.317Z,7.30
2023-01-29T06:15:29.363Z,9.20
2023-01-29T06:16:29.419Z,9.90
2023-01-29T06:17:29.288Z,9.20
2023-01-29T06:18:29.310Z,8.90
2023-01-29T06:19:29.341Z,9.80
2023-01-29T06:20:29.260Z,9.30
2023-01-29T06:21:29.286Z,9.80
2023-01-29T06:22:29.237Z,9.90
2023-01-29T06:23:29.212Z,8.70
2023-01-29T06:24:29.247Z,9.50
2023-01-29T06:25:29.201Z,8.10
2023-01-29T06:26:29.166Z,8.60
2023-01-29T06:27:29.200Z,8.60
2023-01-29T06:28:29.157Z,9.60
2023-01-29T06:29:29.122Z,8.80
2023-01-29T06:30:29.182Z,9.10
2023-01-29T06:31:38.204Z,10.50
2023-01-29T06:32:30.157Z,9.60
2023-01-29T06:33:29.148Z,8.80
2023-01-29T06:34:29.077Z,8.70
2023-01-29T06:35:29.048Z,7.60
2023-01-29T06:36:29.111Z,9.40
2023-01-29T06:37:29.015Z,8.90
2023-01-29T06:38:29.023Z,9.70
2023-01-29T06:39:29.036Z,9.30
2023-01-29T06:40:29.035Z,9.50
2023-01-29T06:41:28.995Z,8.20
2023-01-29T06:42:29.056Z,10.00
2023-01-29T06:43:28.960Z,8.30
2023-01-29T06:44:28.962Z,9.20
2023-01-29T06:45:29.000Z,7.90
2023-01-29T06:46:28.946Z,8.60
2023-01-29T06:47:28.905Z,10.60
2023-01-29T06:48:28.963Z,8.80
2023-01-29T06:49:28.874Z,9.60
2023-01-29T06:50:28.857Z,8.40
2023-01-29T06:51:28.880Z,9.70
2023-01-29T06:52:28.860Z,8.10
2023-01-29T06:53:28.863Z,9.90
2023-01-29T06:54:28.867Z,8.90
2023-01-29T06:55:28.776Z,8.40
2023-01-29T06:56:28.782Z,8.10
2023-01-29T06:57:28.830Z,9.30
2023-01-29T06:58:28.822Z,8.10
2023-01-29T06:59:28.739Z,9.40
2023-01-29T07:00:31.261Z,8.00
2023-01-29T07:01:36.179Z,8.40
2023-01-29T07:02:29.754Z,8.40
2023-01-29T07:03:28.752Z,8.70
2023-01-29T07:04:28.724Z,7.30
2023-01-29T07:05:28.683Z,8.70
2023-01-29T07:06:28.657Z,9.70
2023-01-29T07:07:28.638Z,8.70
2023-01-29T07:08:28.633Z,8.70
2023-01-29T07:09:28.641Z,8.50
2023-01-29T07:10:28.631Z,9.80
2023-01-29T07:11:28.588Z,8.60
2023-01-29T07:12:28.591Z,7.90
2023-01-29T07:13:28.578Z,9.20
2023-01-29T07:14:28.558Z,7.40
2023-01-29T07:15:28.565Z,7.40
2023-01-29T07:16:28.653Z,9.60
2023-01-29T07:17:28.537Z,8.70
2023-01-29T07:18:28.567Z,8.60
2023-01-29T07:19:28.470Z,8.60
2023-01-29T07:20:28.461Z,8.90
2023-01-29T07:21:28.516Z,12.10
2023-01-29T07:22:28.489Z,9.30
2023-01-29T07:23:28.473Z,7.80
2023-01-29T07:24:28.474Z,7.50
2023-01-29T07:25:28.378Z,7.80
2023-01-29T07:26:28.408Z,8.30
2023-01-29T07:27:28.432Z,8.50
2023-01-29T07:28:28.407Z,8.40
2023-01-29T07:29:28.360Z,10.00
2023-01-29T07:30:28.482Z,9.80
2023-01-29T07:31:28.427Z,8.30
2023-01-29T07:32:28.296Z,8.80
2023-01-29T07:33:28.309Z,8.70
2023-01-29T07:34:28.308Z,10.00
2023-01-29T07:35:28.290Z,7.70
2023-01-29T07:36:28.308Z,8.60
2023-01-29T07:37:28.238Z,10.10
2023-01-29T07:38:28.246Z,8.70
2023-01-29T07:39:28.263Z,10.60
2023-01-29T07:40:28.299Z,7.10
2023-01-29T07:41:28.190Z,9.10
2023-01-29T07:42:28.247Z,8.90
2023-01-29T07:43:28.174Z,10.00
2023-01-29T07:44:28.160Z,11.00
2023-01-29T07:45:28.233Z,7.90
2023-01-29T07:46:28.155Z,8.10
2023-01-29T07:47:28.115Z,7.70
2023-01-29T07:48:28.171Z,8.10
2023-01-29T07:49:28.082Z,8.00
2023-01-29T07:50:28.158Z,8.90
2023-01-29T07:51:28.087Z,9.00
2023-01-29T07:52:28.105Z,8.60
2023-01-29T07:53:28.038Z,7.50
2023-01-29T07:54:28.195Z,9.20
2023-01-29T07:55:28.042Z,9.40
2023-01-29T07:56:28.013Z,10.50
2023-01-29T07:57:28.019Z,8.80
2023-01-29T07:58:27.993Z,9.30
2023-01-29T07:59:27.955Z,8.30
2023-01-29T08:00:28.005Z,8.90
2023-01-29T08:01:27.973Z,10.70
2023-01-29T08:02:27.964Z,9.30
2023-01-29T08:03:27.905Z,9.90
2023-01-29T08:04:27.985Z,8.80
2023-01-29T08:05:27.865Z,9.00
2023-01-29T08:06:27.911Z,8.80
2023-01-29T08:07:27.919Z,8.20
2023-01-29T08:08:27.871Z,10.00
2023-01-29T08:09:27.866Z,9.70
2023-01-29T08:10:27.896Z,8.70
2023-01-29T08:11:27.787Z,8.10
2023-01-29T08:12:27.774Z,10.60
2023-01-29T08:13:27.852Z,7.70
2023-01-29T08:14:27.940Z,9.60
2023-01-29T08:15:27.769Z,8.50
2023-01-29T08:16:27.831Z,8.10
2023-01-29T08:17:27.702Z,9.80
2023-01-29T08:18:27.691Z,10.20
2023-01-29T08:19:27.758Z,9.10
2023-01-29T08:20:27.724Z,9.00
2023-01-29T08:21:27.660Z,8.10
2023-01-29T08:22:27.755Z,8.90
2023-01-29T08:23:27.623Z,10.40
2023-01-29T08:24:36.062Z,8.20
2023-01-29T08:25:28.724Z,10.10
2023-01-29T08:26:27.633Z,8.20
2023-01-29T08:27:27.579Z,11.60
2023-01-29T08:28:27.608Z,9.80
2023-01-29T08:29:27.551Z,10.40
2023-01-29T08:30:27.538Z,7.40
2023-01-29T08:31:27.632Z,9.20
2023-01-29T08:32:27.515Z,9.00
2023-01-29T08:33:37.994Z,9.60
2023-01-29T08:34:28.580Z,9.00
2023-01-29T08:35:27.504Z,10.30
2023-01-29T08:36:27.466Z,9.60
2023-01-29T08:37:27.532Z,9.20
2023-01-29T08:38:27.438Z,8.30
2023-01-29T08:39:27.436Z,9.60
2023-01-29T08:40:27.501Z,10.10
2023-01-29T08:41:27.399Z,9.40
2023-01-29T08:42:27.428Z,8.30
2023-01-29T08:43:27.397Z,7.80
2023-01-29T08:44:27.428Z,8.30
2023-01-29T08:45:27.356Z,11.70
2023-01-29T08:46:27.336Z,9.80
2023-01-29T08:47:28.633Z,8.70
2023-01-29T08:48:27.308Z,10.80
2023-01-29T08:49:27.307Z,8.60
2023-01-29T08:50:27.342Z,9.60
2023-01-29T08:51:27.254Z,8.00
2023-01-29T08:52:27.255Z,10.90
2023-01-29T08:53:27.316Z,9.10
2023-01-29T08:54:27.254Z,8.80
2023-01-29T08:55:27.252Z,9.50
2023-01-29T08:56:27.202Z,9.50
2023-01-29T08:57:27.299Z,8.60
2023-01-29T08:58:27.177Z,9.00
2023-01-29T08:59:27.154Z,10.00
2023-01-29T09:00:27.276Z,9.10
2023-01-29T09:01:27.208Z,8.90
2023-01-29T09:02:27.138Z,8.00
2023-01-29T09:03:27.146Z,8.30
2023-01-29T09:04:27.121Z,10.00
2023-01-29T09:05:27.105Z,11.90
2023-01-29T09:06:27.087Z,10.40
2023-01-29T09:07:27.221Z,11.10
2023-01-29T09:08:27.034Z,10.80
2023-01-29T09:09:27.003Z,9.00
2023-01-29T09:10:27.062Z,9.30
2023-01-29T09:11:27.004Z,9.60
2023-01-29T09:12:26.973Z,9.80
2023-01-29T09:13:27.082Z,8.10
2023-01-29T09:14:26.965Z,9.60
2023-01-29T09:15:26.968Z,8.40
2023-01-29T09:16:26.979Z,9.00
2023-01-29T09:17:26.972Z,8.50
2023-01-29T09:18:26.930Z,8.90
2023-01-29T09:19:26.987Z,8.80
2023-01-29T09:20:26.914Z,8.40
2023-01-29T09:21:26.862Z,9.60
2023-01-29T09:22:26.882Z,9.90
2023-01-29T09:23:26.871Z,9.40
2023-01-29T09:24:26.857Z,9.90
2023-01-29T09:25:26.847Z,11.70
2023-01-29T09:26:26.828Z,6.80
2023-01-29T09:27:26.828Z,8.60
2023-01-29T09:28:26.762Z,10.10
2023-01-29T09:29:26.782Z,6.90
2023-01-29T09:30:26.793Z,7.70
2023-01-29T09:31:26.857Z,8.80
2023-01-29T09:32:52.148Z,9.00
2023-01-29T09:33:27.736Z,8.20
2023-01-29T09:34:26.731Z,7.60
2023-01-29T09:35:26.679Z,7.50
2023-01-29T09:36:26.843Z,8.60
2023-01-29T09:37:26.694Z,9.30
2023-01-29T09:38:26.677Z,8.20
2023-01-29T09:39:26.681Z,8.20
2023-01-29T09:40:26.620Z,8.40
2023-01-29T09:41:26.627Z,5.90
2023-01-29T09:42:26.597Z,4.00
2023-01-29T09:43:26.688Z,4.50
2023-01-29T09:44:26.574Z,6.00
2023-01-29T09:45:26.548Z,5.70
2023-01-29T09:46:26.712Z,5.70
2023-01-29T09:47:26.513Z,5.00
2023-01-29T09:48:26.536Z,5.40
2023-01-29T09:49:26.571Z,5.70
2023-01-29T09:50:26.579Z,5.80
2023-01-29T09:51:26.533Z,7.50
2023-01-29T09:52:26.544Z,6.60
2023-01-29T09:53:26.457Z,7.40
2023-01-29T09:54:26.436Z,6.00
2023-01-29T09:55:26.454Z,6.40
2023-01-29T09:56:26.406Z,7.50
2023-01-29T09:57:26.536Z,6.90
2023-01-29T09:58:26.378Z,7.00
2023-01-29T09:59:26.527Z,5.90
2023-01-29T10:00:26.406Z,8.10
2023-01-29T10:01:26.485Z,6.70
2023-01-29T10:02:26.349Z,7.40
2023-01-29T10:03:26.373Z,6.60
2023-01-29T10:04:26.326Z,7.00
2023-01-29T10:05:26.267Z,12.70
2023-01-29T10:06:26.351Z,8.20
2023-01-29T10:07:26.285Z,7.60
2023-01-29T10:08:26.245Z,6.50
2023-01-29T10:09:26.247Z,6.90
2023-01-29T10:10:26.220Z,7.60
2023-01-29T10:11:26.200Z,8.00
2023-01-29T10:12:26.257Z,6.80
2023-01-29T10:13:26.178Z,7.90
2023-01-29T10:14:26.165Z,7.40
2023-01-29T10:15:26.218Z,7.50
2023-01-29T10:16:26.162Z,7.00
2023-01-29T10:17:26.149Z,8.20
2023-01-29T10:18:26.109Z,8.20
2023-01-29T10:19:26.103Z,7.70
2023-01-29T10:20:26.065Z,6.70
2023-01-29T10:21:26.124Z,7.90
2023-01-29T10:22:26.069Z,8.30
2023-01-29T10:23:26.053Z,8.10
2023-01-29T10:24:26.013Z,5.80
2023-01-29T10:25:26.078Z,5.50
2023-01-29T10:26:26.018Z,6.40
2023-01-29T10:27:26.022Z,7.60
2023-01-29T10:28:26.003Z,7.10
2023-01-29T10:29:25.991Z,6.40
2023-01-29T10:30:25.954Z,6.30
2023-01-29T10:31:26.183Z,7.00
2023-01-29T10:32:26.186Z,6.90
2023-01-29T10:33:25.911Z,7.80
2023-01-29T10:34:25.882Z,5.40
2023-01-29T10:35:25.891Z,6.10
2023-01-29T10:36:25.925Z,6.90
2023-01-29T10:37:25.879Z,6.10
2023-01-29T10:38:25.832Z,6.60
2023-01-29T10:39:25.911Z,6.80
2023-01-29T10:40:25.801Z,7.80
2023-01-29T10:41:25.859Z,7.00
2023-01-29T10:42:25.782Z,7.50
2023-01-29T10:43:25.753Z,7.90
2023-01-29T10:44:25.804Z,6.50
2023-01-29T10:45:25.764Z,6.30
2023-01-29T10:46:25.730Z,6.50
2023-01-29T10:47:25.860Z,6.90
2023-01-29T10:48:25.697Z,6.80
2023-01-29T10:49:25.699Z,7.60
2023-01-29T10:50:25.726Z,7.90
2023-01-29T10:51:25.712Z,7.50
2023-01-29T10:52:25.656Z,7.90
2023-01-29T10:53:25.683Z,7.30
2023-01-29T10:54:25.617Z,7.10
2023-01-29T10:55:25.581Z,8.20
2023-01-29T10:56:25.629Z,7.70
2023-01-29T10:57:25.572Z,6.60
2023-01-29T10:58:25.621Z,6.40
2023-01-29T10:59:25.529Z,6.50
2023-01-29T11:00:25.588Z,7.30
2023-01-29T11:01:25.562Z,5.50
2023-01-29T11:02:25.579Z,6.70
2023-01-29T11:03:28.392Z,6.90
2023-01-29T11:04:25.461Z,6.30
2023-01-29T11:05:25.457Z,5.20
2023-01-29T11:06:25.548Z,6.50
2023-01-29T11:07:25.450Z,5.60
2023-01-29T11:08:25.437Z,6.90
2023-01-29T11:09:25.427Z,7.70
2023-01-29T11:10:25.467Z,6.10
2023-01-29T11:11:25.377Z,5.90
2023-01-29T11:12:25.352Z,6.40
2023-01-29T11:13:25.431Z,6.70
2023-01-29T11:14:25.368Z,7.70
2023-01-29T11:15:25.347Z,7.00
2023-01-29T11:16:25.352Z,6.30
2023-01-29T11:17:25.399Z,9.50
2023-01-29T11:18:25.303Z,8.00
2023-01-29T11:19:25.328Z,6.30
2023-01-29T11:20:25.256Z,7.70
2023-01-29T11:21:25.251Z,5.00
2023-01-29T11:22:25.344Z,6.00
2023-01-29T11:23:25.325Z,6.10
2023-01-29T11:24:25.227Z,5.50
2023-01-29T11:25:25.233Z,5.80
2023-01-29T11:26:25.241Z,6.40
2023-01-29T11:27:25.156Z,5.70
2023-01-29T11:28:25.209Z,6.30
2023-01-29T11:29:25.136Z,6.40
2023-01-29T11:30:25.117Z,5.70
2023-01-29T11:31:25.164Z,6.60
2023-01-29T11:32:25.120Z,6.70
2023-01-29T11:33:25.055Z,5.10
2023-01-29T11:34:25.089Z,3.90
2023-01-29T11:35:25.074Z,4.80
2023-01-29T11:36:25.044Z,4.90
2023-01-29T11:37:25.043Z,4.70
2023-01-29T11:38:25.075Z,4.30
2023-01-29T11:39:25.046Z,6.40
2023-01-29T11:40:25.024Z,5.80
2023-01-29T11:41:24.983Z,5.20
2023-01-29T11:42:24.968Z,6.00
2023-01-29T11:43:24.970Z,4.70
2023-01-29T11:44:24.919Z,4.90
2023-01-29T11:45:25.017Z,5.60
2023-01-29T11:46:24.943Z,6.20
2023-01-29T11:47:24.891Z,5.90
2023-01-29T11:48:24.964Z,5.90
2023-01-29T11:49:24.861Z,4.70
2023-01-29T11:50:24.878Z,6.30
2023-01-29T11:51:24.885Z,7.00
2023-01-29T11:52:24.872Z,5.50
2023-01-29T11:53:24.809Z,5.50
2023-01-29T11:54:24.793Z,6.10
2023-01-29T11:55:24.811Z,5.90
2023-01-29T11:56:24.746Z,5.20
2023-01-29T11:57:24.762Z,6.60
2023-01-29T11:58:24.776Z,4.90
2023-01-29T11:59:24.772Z,4.40
2023-01-29T12:00:24.700Z,4.80
2023-01-29T12:01:24.738Z,4.40
2023-01-29T12:02:24.694Z,5.70
2023-01-29T12:03:25.204Z,3.80
2023-01-29T12:04:24.686Z,4.60
2023-01-29T12:05:24.681Z,4.90
2023-01-29T12:06:24.788Z,4.70
2023-01-29T12:07:24.672Z,4.80
2023-01-29T12:08:24.602Z,4.60
2023-01-29T12:09:24.599Z,5.30
2023-01-29T12:10:24.624Z,4.60
2023-01-29T12:11:24.545Z,5.10
2023-01-29T12:12:24.545Z,5.50
2023-01-29T12:13:24.576Z,5.80
2023-01-29T12:14:24.563Z,4.90
2023-01-29T12:15:24.523Z,6.20
2023-01-29T12:16:24.580Z,4.90
2023-01-29T12:17:24.555Z,5.90
2023-01-29T12:18:24.492Z,6.10
2023-01-29T12:19:24.480Z,6.50
2023-01-29T12:20:24.503Z,6.50
2023-01-29T12:21:24.601Z,6.10
2023-01-29T12:22:24.455Z,5.60
2023-01-29T12:23:24.400Z,6.60
2023-01-29T12:24:24.403Z,6.80
2023-01-29T12:25:24.372Z,6.70
2023-01-29T12:26:24.374Z,6.10
2023-01-29T12:27:24.417Z,6.80
2023-01-29T12:28:24.351Z,5.80
2023-01-29T12:29:24.351Z,6.80
2023-01-29T12:30:24.322Z,5.30
2023-01-29T12:31:24.323Z,5.60
2023-01-29T12:32:24.263Z,4.70
2023-01-29T12:33:24.426Z,5.40
2023-01-29T12:34:24.239Z,5.30
2023-01-29T12:35:24.271Z,6.30
2023-01-29T12:36:24.228Z,5.40
2023-01-29T12:37:24.208Z,5.90
2023-01-29T12:38:24.219Z,6.90
2023-01-29T12:39:24.212Z,6.70
2023-01-29T12:40:24.207Z,5.90
2023-01-29T12:41:24.178Z,6.10
2023-01-29T12:42:24.150Z,6.20
2023-01-29T12:43:24.140Z,4.90
2023-01-29T12:44:24.210Z,5.70
2023-01-29T12:45:24.139Z,7.40
2023-01-29T12:46:24.097Z,7.10
2023-01-29T12:47:24.159Z,6.00
2023-01-29T12:48:24.068Z,7.30
2023-01-29T12:49:24.058Z,6.60
2023-01-29T12:50:24.054Z,6.10
2023-01-29T12:51:24.167Z,6.50
2023-01-29T12:52:24.018Z,6.20
2023-01-29T12:53:24.103Z,6.80
2023-01-29T12:54:23.992Z,5.80
2023-01-29T12:55:24.012Z,7.10
2023-01-29T12:56:23.967Z,6.00
2023-01-29T12:57:24.026Z,5.30
2023-01-29T12:58:24.026Z,7.40
2023-01-29T12:59:23.907Z,6.40
2023-01-29T13:00:23.909Z,7.60
2023-01-29T13:01:24.065Z,6.10
2023-01-29T13:02:23.938Z,6.40
2023-01-29T13:03:23.931Z,6.40
2023-01-29T13:04:23.949Z,5.90
2023-01-29T13:05:23.866Z,6.60
2023-01-29T13:06:23.851Z,6.20
2023-01-29T13:07:23.917Z,7.00
2023-01-29T13:08:23.783Z,7.40
2023-01-29T13:09:23.795Z,5.70
2023-01-29T13:10:23.844Z,6.20
2023-01-29T13:11:23.776Z,6.70
2023-01-29T13:12:23.716Z,6.60
2023-01-29T13:13:23.767Z,5.80
2023-01-29T13:14:23.739Z,6.50
2023-01-29T13:15:23.705Z,7.10
2023-01-29T13:16:23.723Z,6.70
2023-01-29T13:17:23.697Z,5.60